• Join FlightAware (Why Join?)
  • Login
  • US Flag 
03:19AM EST


 

Airport Tracker/Info


-or-


 

Live Flight TrackerFlight Track Log ✈ N508DK ✈ 07-Nov-2013 ✈ KFNT - KDPA

Flight Track Log - Related Links

Times and Time Zones

All times are in EST time to prevent confusion due to time zone crossing. See the N508DK flight status page for this flight to view local times or setup timezone preferences in your user account.

Time Position Orientation Groundspeed Altitude Reporting Facility
EST Latitude Longitude Course Direction KTS MPH feet Rate Location/Type
08:26PM 42.9436 -83.8569 236° Southwest 135 155 3,000  Level Cleveland Center
08:27PM 42.9294 -83.9083 249° West 144 166 3,500 480 Climbing Cleveland Center
08:28PM 42.9147 -83.9644 250° West 146 168 4,000 240 Climbing Cleveland Center
08:29PM 42.9003 -84.0153 249° West 146 168 4,100  Climbing Cleveland Center
08:30PM 42.8677 -84.0633 248° West  Level FlightAware Approximate
08:30PM 42.8853 -84.0742 251° West 152 175 4,100  Level Cleveland Center
08:31PM 42.8579 -84.1175 236° Southwest  Level FlightAware Approximate
08:31PM 42.8700 -84.1319 250° West 152 175 4,100  Level Cleveland Center
08:32PM 42.8556 -84.1850 250° West 152 175 4,200  Climbing Cleveland Center
08:33PM 42.8403 -84.2428 250° West 151 174 4,100 -60 Descending Cleveland Center
08:34PM 42.8264 -84.2961 250° West 151 174 4,100  Level Cleveland Center
08:35PM 42.8103 -84.3522 249° West 150 173 4,100  Level Cleveland Center
08:36PM 42.7958 -84.3994 247° West 199 229 4,100  Level Chicago Center
08:37PM 42.7847 -84.4500 253° West 142 163 4,100  Level Chicago Center
08:38PM 42.7703 -84.5017 249° West 145 167 4,100  Level Chicago Center
08:39PM 42.7550 -84.5631 251° West 144 166 4,100  Level Chicago Center
08:40PM 42.7469 -84.6183 259° West 146 168 4,100  Level Chicago Center
08:41PM 42.7375 -84.6725 257° West 148 170 4,100  Level Chicago Center
08:42PM 42.7228 -84.7256 249° West 151 174 4,100  Level Chicago Center
08:43PM 42.6967 -84.7736 234° Southwest 156 180 4,100  Level Chicago Center
08:44PM 42.6731 -84.8217 236° Southwest 155 178 4,100  Level Chicago Center
08:45PM 42.6461 -84.8817 239° Southwest 155 178 4,100  Level Chicago Center
08:46PM 42.6256 -84.9339 242° Southwest 157 181 4,100  Level Chicago Center
08:47PM 42.6086 -84.9864 246° West 154 177 4,100  Level Chicago Center
08:48PM 42.5903 -85.0394 245° Southwest 155 178 4,100  Level Chicago Center
08:50PM 42.5706 -85.0922 243° Southwest 156 180 4,100  Level Chicago Center
08:51PM 42.5483 -85.1431 239° Southwest 157 181 4,100  Level Chicago Center
08:52PM 42.5214 -85.2014 238° Southwest 154 177 4,100  Level Chicago Center
08:53PM 42.5003 -85.2442 236° Southwest 151 174 4,100  Level Chicago Center
08:54PM 42.4792 -85.2981 242° Southwest 151 174 4,100  Level Chicago Center
08:55PM 42.4589 -85.3481 241° Southwest 152 175 4,100  Level Chicago Center
08:56PM 42.4394 -85.3981 242° Southwest 151 174 4,100  Level Chicago Center
08:57PM 42.4189 -85.4483 241° Southwest 152 175 4,100  Level Chicago Center
08:58PM 42.3983 -85.5097 246° West 150 173 4,100  Level Chicago Center
08:59PM 42.3800 -85.5606 244° Southwest 150 173 4,100  Level Chicago Center
09:00PM 42.3581 -85.6094 239° Southwest 152 175 4,100  Level Chicago Center
09:01PM 42.3369 -85.6589 240° Southwest 153 176 4,100  Level Chicago Center
09:02PM 42.3144 -85.7086 239° Southwest 154 177 4,100  Level Chicago Center
09:03PM 42.2922 -85.7569 238° Southwest 153 176 4,100  Level Chicago Center
09:04PM 42.2694 -85.8117 241° Southwest 152 175 4,100  Level Chicago Center
09:05PM 42.2500 -85.8650 244° Southwest 156 180 4,100  Level Chicago Center
09:06PM 42.2281 -85.9275 245° Southwest 156 180 4,100  Level Chicago Center
09:07PM 42.2100 -85.9761 243° Southwest 150 173 4,100  Level Chicago Center
09:08PM 42.1836 -86.0186 230° Southwest 154 177 4,100  Level Chicago Center
09:09PM 42.1456 -86.0506 212° Southwest 162 186 4,100  Level Chicago Center
09:10PM 42.1103 -86.0853 216° Southwest 158 182 4,100 -60 Level Chicago Center
09:11PM 42.0761 -86.1192 216° Southwest 155 178 4,000 -60 Descending Chicago Center
09:12PM 42.0344 -86.1625 218° Southwest 157 181 4,000  Level Chicago Center
09:13PM 41.9997 -86.1969 216° Southwest 156 180 4,100  Climbing Chicago Center
09:14PM 41.9633 -86.2300 214° Southwest 157 181 4,000 -60 Descending Chicago Center
09:15PM 41.9253 -86.2633 213° Southwest 161 185 4,000  Level Chicago Center
09:16PM 41.8867 -86.2925 209° Southwest 161 185 4,000  Level Chicago Center
09:17PM 41.8394 -86.3308 211° Southwest 164 189 4,100  Climbing Chicago Center
09:19PM 41.8036 -86.3669 217° Southwest 163 188 4,100 -60 Level Chicago Center
09:20PM 41.7686 -86.4044 219° Southwest 163 188 4,000  Descending Chicago Center
09:21PM 41.7333 -86.4403 217° Southwest 161 185 4,100  Climbing Chicago Center
09:22PM 41.6981 -86.4769 218° Southwest 161 185 4,000  Descending Chicago Center
09:23PM 41.6622 -86.5136 217° Southwest 162 186 4,100  Climbing Chicago Center
09:24PM 41.6172 -86.5536 214° Southwest 163 188 4,000  Descending Chicago Center
09:25PM 41.5789 -86.5889 215° Southwest 165 190 4,100  Climbing Chicago Center
09:26PM 41.5383 -86.6222 212° Southwest 169 194 4,100 -60 Level Chicago Center
09:27PM 41.5000 -86.6564 214° Southwest 168 193 4,000 -60 Descending Chicago Center
09:28PM 41.4600 -86.6903 212° Southwest 169 194 4,000  Level Chicago Center
09:29PM 41.4203 -86.7269 215° Southwest 170 196 4,000  Level Chicago Center
09:30PM 41.3831 -86.7611 215° Southwest 166 191 4,000  Level Chicago Center
09:31PM 41.3431 -86.8061 220° Southwest 164 189 4,100  Climbing Chicago Center
09:32PM 41.3464 -86.8619 275° West 155 178 4,000 -60 Descending Chicago Center
09:33PM 41.3428 -86.9147 265° West 147 169 4,000  Level Chicago Center
09:34PM 41.3383 -86.9708 264° West 151 174 4,100  Climbing Chicago Center
09:35PM 41.3350 -87.0247 265° West 149 171 4,000  Descending Chicago Center
09:36PM 41.3322 -87.0792 266° West 148 170 4,100  Climbing Chicago Center
09:37PM 41.3275 -87.1453 265° West 149 171 4,100  Level Chicago Center
09:38PM 41.3231 -87.1992 264° West 148 170 4,100  Level Chicago Center
09:39PM 41.3203 -87.2536 266° West 149 171 4,200  Climbing Chicago Center
09:40PM 41.3486 -87.2928 314° West 151 174 4,100 -60 Descending Chicago Center
09:41PM 41.3742 -87.3333 310° West 146 168 4,100  Level Chicago Center
09:42PM 41.3978 -87.3747 307° West 144 166 4,100  Level Chicago Center
09:43PM 41.4236 -87.4269 303° West 143 165 4,100  Level Chicago Center
09:44PM 41.4442 -87.4714 302° West 142 163 4,100  Level Chicago Center
09:45PM 41.4639 -87.5169 300° West 143 165 4,100 -60 Level Chicago Center
09:46PM 41.4764 -87.5664 289° West 142 163 4,000 -300 Descending Chicago Center
09:47PM 41.4908 -87.6178 291° West 145 167 3,500 -480 Descending Chicago Center
09:48PM 41.5069 -87.6706 292° West 150 173 3,100 -240 Descending Chicago Center
09:49PM 41.5297 -87.7289 298° West 151 174 3,100 -60 Level Chicago Center
09:50PM 41.5456 -87.7756 294° West 145 167 3,000  Descending Chicago Center
09:51PM 41.5608 -87.8214 294° West 140 161 3,100  Climbing Chicago Center
09:52PM 41.5758 -87.8675 294° West 138 159 3,100  Level Chicago Center
09:54PM 41.5911 -87.9131 294° West 137 158 3,100  Level Chicago Center
09:55PM 41.6061 -87.9597 293° West 137 158 3,100  Level Chicago Center
09:56PM 41.6258 -88.0133 296° West 136 157 3,100 -60 Level Chicago Center
09:57PM 41.6617 -88.0342 337° Northwest 142 163 3,000 -240 Descending Chicago Center
09:58PM 41.6936 -88.0658 323° Northwest 144 166 2,700 -240 Descending Chicago Center
09:59PM 41.7303 -88.0997 325° Northwest 148 170 2,600 -60 Descending Chicago Center
10:00PM 41.7625 -88.1253 329° Northwest 147 169 2,600  Level Chicago Center
10:01PM 41.7942 -88.1519 328° Northwest 142 163 2,600  Level Chicago Center
10:02PM 41.8136 -88.1853 308° West 137 158 2,600  Level Chicago Center
10:03PM 41.8369 -88.2258 308° West 121 139 2,600 -420 Level Chicago Center
10:04PM 41.8519 -88.2536 306° West 104 120 1,800 -660 Descending Chicago Center
10:05PM 41.8703 -88.2622 341° North 85 98 1,300 -360 Descending Chicago Center
10:06PM 41.8922 -88.2550 14° North 86 99 1,100 -240 Descending Chicago Center